createdAt,value
2023-04-25T00:00:42.242Z,12.90
2023-04-25T00:03:29.474Z,12.90
2023-04-25T00:06:03.712Z,12.50
2023-04-25T00:08:37.490Z,12.50
2023-04-25T00:11:10.760Z,13.10
2023-04-25T00:13:44.217Z,14.10
2023-04-25T00:16:17.779Z,14.10
2023-04-25T00:18:52.886Z,13.40
2023-04-25T00:21:27.261Z,14.30
2023-04-25T00:24:01.543Z,13.80
2023-04-25T00:26:36.298Z,14.60
2023-04-25T00:29:09.883Z,13.40
2023-04-25T00:31:43.861Z,13.70
2023-04-25T00:34:18.020Z,12.70
2023-04-25T00:36:51.340Z,13.10
2023-04-25T00:39:25.987Z,13.40
2023-04-25T00:42:00.364Z,13.80
2023-04-25T00:44:34.670Z,13.60
2023-04-25T00:47:09.370Z,14.90
2023-04-25T00:49:43.037Z,13.70
2023-04-25T00:52:16.873Z,13.60
2023-04-25T00:54:50.358Z,13.70
2023-04-25T00:57:23.917Z,12.70
2023-04-25T00:59:57.796Z,13.10
2023-04-25T01:02:32.197Z,12.80
2023-04-25T01:05:06.465Z,12.80
2023-04-25T01:07:40.392Z,11.80
2023-04-25T01:10:14.229Z,12.80
2023-04-25T01:12:48.216Z,11.80
2023-04-25T01:15:21.950Z,12.40
2023-04-25T01:17:56.771Z,11.90
2023-04-25T01:20:31.553Z,11.20
2023-04-25T01:23:05.455Z,11.20
2023-04-25T01:25:39.786Z,12.40
2023-04-25T01:28:14.172Z,11.30
2023-04-25T01:30:48.915Z,11.30
2023-04-25T01:33:24.711Z,11.70
2023-04-25T01:35:58.349Z,12.00
2023-04-25T01:38:32.361Z,12.40
2023-04-25T01:41:07.842Z,11.80
2023-04-25T01:43:41.218Z,11.20
2023-04-25T01:46:15.634Z,10.50
2023-04-25T01:48:49.905Z,10.30
2023-04-25T01:51:24.123Z,10.80
2023-04-25T01:54:00.876Z,10.90
2023-04-25T01:56:39.615Z,11.20
2023-04-25T01:59:15.016Z,10.10
2023-04-25T02:02:06.439Z,10.10
2023-04-25T02:04:40.853Z,10.00
2023-04-25T02:07:15.039Z,10.20
2023-04-25T02:09:56.609Z,10.10
2023-04-25T02:12:32.306Z,10.30
2023-04-25T02:15:21.489Z,10.60
2023-04-25T02:17:59.243Z,9.60
2023-04-25T02:20:33.456Z,9.40
2023-04-25T02:23:07.138Z,9.00
2023-04-25T02:25:41.053Z,9.80
2023-04-25T02:28:15.559Z,9.60
2023-04-25T02:30:49.069Z,9.50
2023-04-25T02:33:22.502Z,10.00
2023-04-25T02:35:56.438Z,9.20
2023-04-25T02:38:29.984Z,9.60
2023-04-25T02:41:03.651Z,8.00
2023-04-25T02:43:37.533Z,8.60
2023-04-25T02:46:11.682Z,8.10
2023-04-25T02:48:46.983Z,7.90
2023-04-25T02:51:20.507Z,8.60
2023-04-25T02:53:54.761Z,8.30
2023-04-25T02:56:28.890Z,8.30
2023-04-25T02:59:02.791Z,8.60
2023-04-25T03:01:37.223Z,9.30
2023-04-25T03:04:10.900Z,8.30
2023-04-25T03:06:45.815Z,8.20
2023-04-25T03:09:20.364Z,8.50
2023-04-25T03:11:54.472Z,8.20
2023-04-25T03:14:28.096Z,9.50
2023-04-25T03:17:01.812Z,9.10
2023-04-25T03:19:35.494Z,8.70
2023-04-25T03:22:09.685Z,9.10
2023-04-25T03:24:43.430Z,9.40
2023-04-25T03:27:16.855Z,8.90
2023-04-25T03:29:50.718Z,7.60
2023-04-25T03:32:27.312Z,8.40
2023-04-25T03:35:00.924Z,8.10
2023-04-25T03:37:34.828Z,8.00
2023-04-25T03:40:10.462Z,8.10
2023-04-25T03:43:13.417Z,8.30
2023-04-25T03:45:50.725Z,8.00
2023-04-25T03:48:27.335Z,7.50
2023-04-25T03:51:01.334Z,7.90
2023-04-25T03:53:35.236Z,7.80
2023-04-25T03:56:29.734Z,7.90
2023-04-25T03:59:09.192Z,7.00
2023-04-25T04:01:43.473Z,7.20
2023-04-25T04:04:17.509Z,6.70
2023-04-25T04:06:52.120Z,6.90
2023-04-25T04:09:31.314Z,6.70
2023-04-25T04:12:07.750Z,6.50
2023-04-25T04:14:41.830Z,6.30
2023-04-25T04:17:15.197Z,7.00
2023-04-25T04:19:49.110Z,6.10
2023-04-25T04:22:26.549Z,6.00
2023-04-25T04:25:04.449Z,6.10
2023-04-25T04:28:05.086Z,5.70
2023-04-25T04:31:02.892Z,6.70
2023-04-25T04:33:37.984Z,6.30
2023-04-25T04:36:12.800Z,6.20
2023-04-25T04:38:46.275Z,6.30
2023-04-25T04:41:27.994Z,6.70
2023-04-25T04:44:15.388Z,6.90
2023-04-25T04:46:54.037Z,7.10
2023-04-25T04:49:49.001Z,6.80
2023-04-25T04:52:36.892Z,6.60
2023-04-25T04:55:29.941Z,6.80
2023-04-25T04:58:17.469Z,6.80
2023-04-25T05:01:11.753Z,7.00
2023-04-25T05:04:20.854Z,7.00
2023-04-25T05:07:10.231Z,6.70
2023-04-25T05:10:03.321Z,7.60
2023-04-25T05:12:40.648Z,6.70
2023-04-25T05:15:40.453Z,6.90
2023-04-25T05:18:38.742Z,7.10
2023-04-25T05:21:31.352Z,7.10
2023-04-25T05:24:20.943Z,6.70
2023-04-25T05:27:28.261Z,6.60
2023-04-25T05:30:22.124Z,6.90
2023-04-25T05:33:14.252Z,6.90
2023-04-25T05:35:48.082Z,6.60
2023-04-25T05:38:22.092Z,6.80
2023-04-25T05:41:22.605Z,6.90
2023-04-25T05:44:06.969Z,6.50
2023-04-25T05:46:47.477Z,7.20
2023-04-25T05:49:47.782Z,7.30
2023-04-25T05:52:38.192Z,6.90
2023-04-25T05:55:19.076Z,7.10
2023-04-25T05:57:52.878Z,7.10
2023-04-25T06:00:26.822Z,6.80
2023-04-25T06:03:03.835Z,6.30
2023-04-25T06:05:37.943Z,6.80
2023-04-25T06:08:11.989Z,6.90
2023-04-25T06:10:46.632Z,7.00
2023-04-25T06:13:21.352Z,6.80
2023-04-25T06:15:55.147Z,6.70
2023-04-25T06:18:28.722Z,7.10
2023-04-25T06:21:02.429Z,5.90
2023-04-25T06:23:36.216Z,6.00
2023-04-25T06:26:12.978Z,6.30
2023-04-25T06:28:48.271Z,6.10
2023-04-25T06:31:22.680Z,5.80
2023-04-25T06:33:56.960Z,5.50
2023-04-25T06:36:31.762Z,6.60
2023-04-25T06:39:10.571Z,6.40
2023-04-25T06:41:44.549Z,6.30
2023-04-25T06:44:39.435Z,5.80
2023-04-25T06:47:15.356Z,5.40
2023-04-25T06:49:49.754Z,6.10
2023-04-25T06:52:23.513Z,6.10
2023-04-25T06:54:57.909Z,6.60
2023-04-25T06:57:57.990Z,5.90
2023-04-25T07:00:52.126Z,6.00
2023-04-25T07:03:27.923Z,5.90
2023-04-25T07:06:08.670Z,5.20
2023-04-25T07:08:42.416Z,5.50
2023-04-25T07:11:16.442Z,5.60
2023-04-25T07:13:50.444Z,5.70
2023-04-25T07:16:24.516Z,5.50
2023-04-25T07:18:58.498Z,5.30
2023-04-25T07:21:32.614Z,4.70
2023-04-25T07:24:08.366Z,4.50
2023-04-25T07:26:45.018Z,5.20
2023-04-25T07:29:32.267Z,5.60
2023-04-25T07:32:07.192Z,5.50
2023-04-25T07:34:41.262Z,5.60
2023-04-25T07:37:15.437Z,5.00
2023-04-25T07:40:01.376Z,4.40
2023-04-25T07:42:35.049Z,4.50
2023-04-25T07:45:10.615Z,4.70
2023-04-25T07:47:45.121Z,4.70
2023-04-25T07:50:19.668Z,4.40
2023-04-25T07:52:54.717Z,4.50
2023-04-25T07:55:33.114Z,4.40
2023-04-25T07:58:12.239Z,3.70
2023-04-25T08:00:47.400Z,3.80
2023-04-25T08:03:36.108Z,3.60
2023-04-25T08:06:12.697Z,3.60
2023-04-25T08:08:57.106Z,3.90
2023-04-25T08:11:34.659Z,4.00
2023-04-25T08:14:09.427Z,4.00
2023-04-25T08:16:43.695Z,3.60
2023-04-25T08:19:17.390Z,3.70
2023-04-25T08:21:53.570Z,3.40
2023-04-25T08:24:38.804Z,3.70
2023-04-25T08:27:14.363Z,3.70
2023-04-25T08:29:48.159Z,4.00
2023-04-25T08:32:23.902Z,4.20
2023-04-25T08:35:11.096Z,4.50
2023-04-25T08:37:44.575Z,3.90
2023-04-25T08:40:27.443Z,4.00
2023-04-25T08:45:47.641Z,3.50
2023-04-25T08:48:39.932Z,3.20
2023-04-25T08:51:19.848Z,3.70
2023-04-25T08:53:58.010Z,4.00
2023-04-25T08:56:50.925Z,4.00
2023-04-25T08:59:25.357Z,3.90
2023-04-25T09:01:59.696Z,3.70
2023-04-25T09:04:34.458Z,4.50
2023-04-25T09:07:08.102Z,3.80
2023-04-25T09:09:42.039Z,4.10
2023-04-25T09:12:16.136Z,3.60
2023-04-25T09:15:07.314Z,3.90
2023-04-25T09:18:10.591Z,3.90
2023-04-25T09:23:26.921Z,4.70
2023-04-25T09:26:00.578Z,4.30
2023-04-25T09:28:33.929Z,4.20
2023-04-25T09:31:08.105Z,5.90
2023-04-25T09:33:49.454Z,5.90
2023-04-25T09:36:30.869Z,5.20
2023-04-25T09:39:36.409Z,5.20
2023-04-25T09:42:19.036Z,6.30
2023-04-25T09:44:54.381Z,6.80
2023-04-25T09:47:29.892Z,6.00
2023-04-25T09:50:04.113Z,6.10
2023-04-25T09:52:38.066Z,6.30
2023-04-25T09:55:23.892Z,5.60
2023-04-25T09:58:00.623Z,6.40
2023-04-25T10:00:35.445Z,6.80
2023-04-25T10:03:16.627Z,8.20
2023-04-25T10:06:10.407Z,6.60
2023-04-25T10:08:46.366Z,6.60
2023-04-25T10:11:20.989Z,6.10
2023-04-25T10:13:55.449Z,7.40
2023-04-25T10:16:30.124Z,6.80
2023-04-25T10:19:04.260Z,7.20
2023-04-25T10:21:40.165Z,7.30
2023-04-25T10:24:14.117Z,8.00
2023-04-25T10:26:48.877Z,6.70
2023-04-25T10:29:29.055Z,7.40
2023-04-25T10:32:03.149Z,8.00
2023-04-25T10:34:48.418Z,7.70
2023-04-25T10:37:23.446Z,7.60
2023-04-25T10:39:57.123Z,7.60
2023-04-25T10:42:31.293Z,7.40
2023-04-25T10:45:10.581Z,6.20
2023-04-25T10:47:49.564Z,6.20
2023-04-25T10:50:23.358Z,6.30
2023-04-25T10:52:58.172Z,5.90
2023-04-25T10:55:52.196Z,6.00
2023-04-25T10:58:27.721Z,6.10
2023-04-25T11:01:01.974Z,6.00
2023-04-25T11:03:41.238Z,7.10
2023-04-25T11:06:25.336Z,6.40
2023-04-25T11:08:59.676Z,6.00
2023-04-25T11:11:34.145Z,6.70
2023-04-25T11:14:08.309Z,6.20
2023-04-25T11:16:41.996Z,6.80
2023-04-25T11:19:15.429Z,6.50
2023-04-25T11:21:49.276Z,7.30
2023-04-25T11:24:28.245Z,6.80
2023-04-25T11:27:03.601Z,7.20
2023-04-25T11:29:40.560Z,7.70
2023-04-25T11:32:14.865Z,7.30
2023-04-25T11:34:49.553Z,7.60
2023-04-25T11:37:23.171Z,6.90
2023-04-25T11:39:57.194Z,9.80
2023-04-25T11:42:31.328Z,7.80
2023-04-25T11:45:06.792Z,7.90
2023-04-25T11:47:41.072Z,6.90
2023-04-25T11:50:15.649Z,7.50
2023-04-25T11:52:50.324Z,6.20
2023-04-25T11:55:25.227Z,5.90
2023-04-25T11:58:03.568Z,5.60
2023-04-25T12:00:37.408Z,5.50
2023-04-25T12:03:14.013Z,5.30
2023-04-25T12:05:49.137Z,5.30
2023-04-25T12:08:24.208Z,5.00
2023-04-25T12:10:58.519Z,5.10
2023-04-25T12:13:34.267Z,5.10
2023-04-25T12:16:09.244Z,5.60
2023-04-25T12:18:43.736Z,4.90
2023-04-25T12:21:17.427Z,4.80
2023-04-25T12:23:51.406Z,4.80
2023-04-25T12:26:26.872Z,4.90
2023-04-25T12:29:01.676Z,4.70
2023-04-25T12:31:35.538Z,4.50
2023-04-25T12:34:09.287Z,4.70
2023-04-25T12:36:43.219Z,4.50
2023-04-25T12:39:23.032Z,4.70
2023-04-25T12:41:57.049Z,4.60
2023-04-25T12:44:30.626Z,4.40
2023-04-25T12:47:04.520Z,4.90
2023-04-25T12:49:38.894Z,4.60
2023-04-25T12:52:12.964Z,4.80
2023-04-25T12:54:46.621Z,5.10
2023-04-25T12:57:20.224Z,6.20
2023-04-25T12:59:53.933Z,5.20
2023-04-25T13:02:28.208Z,6.00
2023-04-25T13:05:02.306Z,5.70
2023-04-25T13:07:37.182Z,5.90
2023-04-25T13:10:11.976Z,6.50
2023-04-25T13:12:46.867Z,6.10
2023-04-25T13:15:21.030Z,6.20
2023-04-25T13:17:54.376Z,6.30
2023-04-25T13:20:28.377Z,6.00
2023-04-25T13:23:02.956Z,5.90
2023-04-25T13:25:37.022Z,5.90
2023-04-25T13:28:10.783Z,5.70
2023-04-25T13:30:45.663Z,5.60
2023-04-25T13:33:19.950Z,5.70
2023-04-25T13:35:57.717Z,5.40
2023-04-25T13:38:31.940Z,5.90
2023-04-25T13:41:05.844Z,5.70
2023-04-25T13:43:39.685Z,5.50
2023-04-25T13:46:30.132Z,6.10
2023-04-25T13:49:12.249Z,5.00
2023-04-25T13:51:47.206Z,5.40
2023-04-25T13:54:22.135Z,4.90
2023-04-25T13:57:00.701Z,5.50
2023-04-25T13:59:34.633Z,4.90
2023-04-25T14:02:09.128Z,5.10
2023-04-25T14:04:42.819Z,4.60
2023-04-25T14:07:17.837Z,4.80
2023-04-25T14:09:51.841Z,4.40
2023-04-25T14:12:26.227Z,4.80
2023-04-25T14:15:00.002Z,4.30
2023-04-25T14:17:33.938Z,4.40
2023-04-25T14:20:10.585Z,5.00
2023-04-25T14:22:44.999Z,4.80
2023-04-25T14:25:18.904Z,4.60
2023-04-25T14:27:52.751Z,4.80
2023-04-25T14:30:26.776Z,5.60
2023-04-25T14:33:00.870Z,5.50
2023-04-25T14:35:34.556Z,5.30
2023-04-25T14:38:09.144Z,4.50
2023-04-25T14:40:43.081Z,4.40
2023-04-25T14:43:16.842Z,8.90
2023-04-25T14:45:54.407Z,5.90
2023-04-25T14:48:29.051Z,6.00
2023-04-25T14:51:08.514Z,5.10
2023-04-25T14:53:42.595Z,5.90
2023-04-25T14:56:16.533Z,5.40
2023-04-25T14:58:50.349Z,5.40
2023-04-25T15:01:24.500Z,5.40
2023-04-25T15:03:59.576Z,5.60
2023-04-25T15:06:34.396Z,5.10
2023-04-25T15:09:11.985Z,5.40
2023-04-25T15:11:46.444Z,5.50
2023-04-25T15:14:19.598Z,5.30
2023-04-25T15:16:54.309Z,5.80
2023-04-25T15:19:28.544Z,6.10
2023-04-25T15:22:04.436Z,5.60
2023-04-25T15:24:38.525Z,5.70
2023-04-25T15:27:12.564Z,5.10
2023-04-25T15:29:46.858Z,5.40
2023-04-25T15:32:21.422Z,5.50
2023-04-25T15:34:55.216Z,5.80
2023-04-25T15:37:28.962Z,5.20
2023-04-25T15:40:10.532Z,4.90
2023-04-25T15:42:48.208Z,5.60
2023-04-25T15:45:24.491Z,5.20
2023-04-25T15:47:59.189Z,5.30
2023-04-25T15:50:33.176Z,6.40
2023-04-25T15:53:07.507Z,5.50
2023-04-25T15:55:41.698Z,6.10
2023-04-25T15:58:15.626Z,5.60
2023-04-25T16:00:52.339Z,5.20
2023-04-25T16:03:26.374Z,5.20
2023-04-25T16:06:00.114Z,5.60
2023-04-25T16:08:36.135Z,5.60
2023-04-25T16:11:11.088Z,5.80
2023-04-25T16:13:44.718Z,5.70
2023-04-25T16:16:18.974Z,5.80
2023-04-25T16:18:52.410Z,5.30
2023-04-25T16:21:29.553Z,4.70
2023-04-25T16:24:03.364Z,4.60
2023-04-25T16:26:37.909Z,4.70
2023-04-25T16:29:12.974Z,5.30
2023-04-25T16:31:49.427Z,6.20
2023-04-25T16:34:23.941Z,5.40
2023-04-25T16:36:58.072Z,5.20
2023-04-25T16:39:31.639Z,6.20
2023-04-25T16:42:05.598Z,5.40
2023-04-25T16:44:39.942Z,5.50
2023-04-25T16:47:16.899Z,5.70
2023-04-25T16:49:53.979Z,6.00
2023-04-25T16:52:28.010Z,5.40
2023-04-25T16:55:01.817Z,5.90
2023-04-25T16:57:36.629Z,5.40
2023-04-25T17:00:14.087Z,4.90
2023-04-25T17:02:49.739Z,5.40
2023-04-25T17:05:24.454Z,5.20
2023-04-25T17:07:58.490Z,5.60
2023-04-25T17:10:33.372Z,5.40
2023-04-25T17:13:08.339Z,5.60
2023-04-25T17:15:42.208Z,5.20
2023-04-25T17:18:16.788Z,5.70
2023-04-25T17:20:50.526Z,5.60
2023-04-25T17:23:26.666Z,5.60
2023-04-25T17:26:01.265Z,5.60
2023-04-25T17:28:37.286Z,5.60
2023-04-25T17:31:13.251Z,5.90
2023-04-25T17:33:47.421Z,5.60
2023-04-25T17:36:23.665Z,7.00
2023-04-25T17:38:58.413Z,7.90
2023-04-25T17:41:34.669Z,6.10
2023-04-25T17:44:09.999Z,6.90
2023-04-25T17:46:46.209Z,8.40
2023-04-25T17:49:19.912Z,8.80
2023-04-25T17:51:55.077Z,11.30
2023-04-25T17:54:30.145Z,7.40
2023-04-25T17:57:06.865Z,6.20
2023-04-25T17:59:40.858Z,6.80
2023-04-25T18:02:18.077Z,7.30
2023-04-25T18:04:54.526Z,6.50
2023-04-25T18:07:29.991Z,6.40
2023-04-25T18:10:09.684Z,6.30
2023-04-25T18:12:44.406Z,6.30
2023-04-25T18:15:22.635Z,6.50
2023-04-25T18:18:03.862Z,6.00
2023-04-25T18:20:40.608Z,6.30
2023-04-25T18:23:22.970Z,6.70
2023-04-25T18:26:08.358Z,6.40
2023-04-25T18:28:46.344Z,6.40
2023-04-25T18:31:26.715Z,6.70
2023-04-25T18:34:01.363Z,6.40
2023-04-25T18:36:39.937Z,7.40
2023-04-25T18:39:22.457Z,5.80
2023-04-25T18:42:09.635Z,6.00
2023-04-25T18:44:47.803Z,6.70
2023-04-25T18:47:23.638Z,6.60
2023-04-25T18:49:57.789Z,6.50
2023-04-25T18:52:34.390Z,5.80
2023-04-25T18:55:11.430Z,6.50
2023-04-25T18:57:46.799Z,6.80
2023-04-25T19:00:25.874Z,6.60
2023-04-25T19:03:05.508Z,7.00
2023-04-25T19:05:43.736Z,6.70
2023-04-25T19:08:17.586Z,6.70
2023-04-25T19:10:54.797Z,7.20
2023-04-25T19:13:31.070Z,6.10
2023-04-25T19:16:06.729Z,6.80
2023-04-25T19:18:42.269Z,7.10
2023-04-25T19:21:22.312Z,6.90
2023-04-25T19:23:58.178Z,7.30
2023-04-25T19:26:37.836Z,6.80
2023-04-25T19:29:15.446Z,6.00
2023-04-25T19:31:58.160Z,6.80
2023-04-25T19:34:33.746Z,6.60
2023-04-25T19:37:08.864Z,7.30
2023-04-25T19:39:48.234Z,7.30
2023-04-25T19:42:24.944Z,8.10
2023-04-25T19:45:03.610Z,7.50
2023-04-25T19:47:44.220Z,8.80
2023-04-25T19:50:19.730Z,8.30
2023-04-25T19:52:54.528Z,7.90
2023-04-25T19:55:30.160Z,8.20
2023-04-25T19:58:11.353Z,7.80
2023-04-25T20:00:48.146Z,8.00
2023-04-25T20:03:23.964Z,8.10
2023-04-25T20:06:02.397Z,7.90
2023-04-25T20:08:40.776Z,6.90
2023-04-25T20:11:15.256Z,7.00
2023-04-25T20:13:50.627Z,6.70
2023-04-25T20:16:26.318Z,7.60
2023-04-25T20:19:02.481Z,7.10
2023-04-25T20:21:38.147Z,7.30
2023-04-25T20:24:12.877Z,7.50
2023-04-25T20:26:48.990Z,7.50
2023-04-25T20:29:22.881Z,7.10
2023-04-25T20:31:58.140Z,7.70
2023-04-25T20:34:32.106Z,6.70
2023-04-25T20:37:08.867Z,8.10
2023-04-25T20:39:42.405Z,7.60
2023-04-25T20:42:16.162Z,7.50
2023-04-25T20:44:50.853Z,7.80
2023-04-25T20:47:24.295Z,7.20
2023-04-25T20:49:59.614Z,8.10
2023-04-25T20:52:33.553Z,7.60
2023-04-25T20:55:08.485Z,8.00
2023-04-25T20:57:42.750Z,8.30
2023-04-25T21:00:18.923Z,8.40
2023-04-25T21:02:53.038Z,8.50
2023-04-25T21:05:26.593Z,7.90
2023-04-25T21:08:00.259Z,8.60
2023-04-25T21:10:36.118Z,8.50
2023-04-25T21:13:12.495Z,8.00
2023-04-25T21:15:46.000Z,8.30
2023-04-25T21:18:22.901Z,9.30
2023-04-25T21:20:56.744Z,8.80
2023-04-25T21:23:31.286Z,9.00
2023-04-25T21:26:04.756Z,8.00
2023-04-25T21:28:38.387Z,8.00
2023-04-25T21:31:12.487Z,8.00
2023-04-25T21:33:45.964Z,7.90
2023-04-25T21:36:19.668Z,9.00
2023-04-25T21:38:53.634Z,8.80
2023-04-25T21:41:28.219Z,8.60
2023-04-25T21:44:02.178Z,8.20
2023-04-25T21:46:35.943Z,7.90
2023-04-25T21:49:09.608Z,7.80
2023-04-25T21:51:43.853Z,8.60
2023-04-25T21:54:17.885Z,8.60
2023-04-25T21:56:51.761Z,9.20
2023-04-25T21:59:26.455Z,9.60
2023-04-25T22:02:00.499Z,9.70
2023-04-25T22:04:34.816Z,9.20
2023-04-25T22:07:09.449Z,8.90
2023-04-25T22:09:54.292Z,7.70
2023-04-25T22:12:29.292Z,9.00
2023-04-25T22:15:03.760Z,7.70
2023-04-25T22:18:10.698Z,10.70
2023-04-25T22:20:47.719Z,10.60
2023-04-25T22:23:21.527Z,7.70
2023-04-25T22:25:55.038Z,7.50
2023-04-25T22:28:28.978Z,6.10
2023-04-25T22:31:37.360Z,7.10
2023-04-25T22:34:30.310Z,5.60
2023-04-25T22:37:04.010Z,5.20
2023-04-25T22:39:38.057Z,5.20
2023-04-25T22:42:11.883Z,5.40
2023-04-25T22:44:45.400Z,5.10
2023-04-25T22:47:19.191Z,5.20
2023-04-25T22:49:53.891Z,4.90
2023-04-25T22:52:27.928Z,4.30
2023-04-25T22:55:02.037Z,4.40
2023-04-25T22:57:38.529Z,4.50
2023-04-25T23:00:20.338Z,4.60
2023-04-25T23:02:54.051Z,4.60
2023-04-25T23:05:27.732Z,4.20
2023-04-25T23:08:01.228Z,4.00
2023-04-25T23:10:34.702Z,4.20
2023-04-25T23:13:08.960Z,3.80
2023-04-25T23:15:43.079Z,4.90
2023-04-25T23:18:16.946Z,4.70
2023-04-25T23:20:50.481Z,4.10
2023-04-25T23:23:24.365Z,4.00
2023-04-25T23:25:58.610Z,3.80
2023-04-25T23:28:32.151Z,4.10
2023-04-25T23:31:09.367Z,3.90
2023-04-25T23:33:43.293Z,3.80
2023-04-25T23:36:22.344Z,3.80
2023-04-25T23:38:57.461Z,4.20
2023-04-25T23:41:31.025Z,3.90
2023-04-25T23:44:08.201Z,4.00
2023-04-25T23:46:41.852Z,3.60
2023-04-25T23:49:15.353Z,3.90
2023-04-25T23:51:49.210Z,4.90
2023-04-25T23:54:23.869Z,3.60
2023-04-25T23:56:57.268Z,3.70
2023-04-25T23:59:30.744Z,4.10
